Time;durP1;ratioP1;P1;durP2;ratioP2;P2;SDS_P1;SDS_P2;PMS_P1;PMS_P2;Temp;Humidity;BMP_temperature;BMP_pressure;BME280_temperature;BME280_humidity;BME280_pressure;Samples;Min_cycle;Max_cycle;Signal;HPM_P1;HPM_P2
2022/12/03 00:02:02;;;;;;;29.73;14.35;;;;;;;;;;5116036;27;20101;-67
2022/12/03 00:04:29;;;;;;;29.27;14.73;;;;;;;;;;5116969;27;20054;-67
2022/12/03 00:06:56;;;;;;;29.77;13.90;;;;;;;;;;5104418;27;20102;-67
2022/12/03 00:09:25;;;;;;;27.92;13.88;;;;;;;;;;5128380;27;20051;-67
2022/12/03 00:11:52;;;;;;;28.70;13.57;;;;;;;;;;5127428;27;20049;-67
2022/12/03 00:14:19;;;;;;;31.17;14.30;;;;;;;;;;5119952;27;20507;-67
2022/12/03 00:16:46;;;;;;;32.10;14.00;;;;;;;;;;5125637;27;20043;-67
2022/12/03 00:19:13;;;;;;;31.80;15.13;;;;;;;;;;5125339;27;20055;-68
2022/12/03 00:21:41;;;;;;;27.83;12.65;;;;;;;;;;5121484;27;20047;-66
2022/12/03 00:24:08;;;;;;;27.55;13.95;;;;;;;;;;5128954;27;20043;-67
2022/12/03 00:26:37;;;;;;;28.88;13.32;;;;;;;;;;5126026;27;20043;-67
2022/12/03 00:29:04;;;;;;;30.17;12.05;;;;;;;;;;5115467;27;20164;-67
2022/12/03 00:31:31;;;;;;;24.48;11.15;;;;;;;;;;5112331;27;20035;-67
2022/12/03 00:33:59;;;;;;;25.13;10.52;;;;;;;;;;5112961;27;20059;-67
2022/12/03 00:36:26;;;;;;;20.73;9.77;;;;;;;;;;5124131;27;20052;-67
2022/12/03 00:38:53;;;;;;;21.30;9.68;;;;;;;;;;5113240;27;20044;-67
2022/12/03 00:41:20;;;;;;;23.10;10.45;;;;;;;;;;5122942;27;20075;-67
2022/12/03 00:43:49;;;;;;;23.58;10.93;;;;;;;;;;5123763;27;20107;-67
2022/12/03 00:46:16;;;;;;;21.65;9.93;;;;;;;;;;5112439;27;20061;-67
2022/12/03 00:48:43;;;;;;;20.15;9.70;;;;;;;;;;5125275;27;20055;-67
2022/12/03 00:51:10;;;;;;;21.73;10.23;;;;;;;;;;5118547;27;20682;-67
2022/12/03 00:53:38;;;;;;;18.33;9.77;;;;;;;;;;5124357;27;20818;-67
2022/12/03 00:56:05;;;;;;;20.65;9.75;;;;;;;;;;5110862;27;20054;-67
2022/12/03 00:58:32;;;;;;;21.23;9.35;;;;;;;;;;5112776;27;20047;-67
2022/12/03 01:01:01;;;;;;;19.15;9.85;;;;;;;;;;5118474;27;20398;-67
2022/12/03 01:03:28;;;;;;;22.65;9.45;;;;;;;;;;5119182;27;20125;-67
2022/12/03 01:05:55;;;;;;;21.40;9.68;;;;;;;;;;5124152;27;20050;-67
2022/12/03 01:08:23;;;;;;;20.85;9.27;;;;;;;;;;5117654;27;20055;-67
2022/12/03 01:10:50;;;;;;;18.98;10.02;;;;;;;;;;5119532;27;20047;-67
2022/12/03 01:13:17;;;;;;;22.42;9.77;;;;;;;;;;5119813;27;20055;-67
2022/12/03 01:15:44;;;;;;;20.77;9.80;;;;;;;;;;5116536;27;20411;-67
2022/12/03 01:18:13;;;;;;;20.00;9.40;;;;;;;;;;5130031;27;20054;-67
2022/12/03 01:20:40;;;;;;;20.38;8.95;;;;;;;;;;5116575;27;20130;-67
2022/12/03 01:23:07;;;;;;;17.23;8.25;;;;;;;;;;5117530;27;20052;-67
2022/12/03 01:25:35;;;;;;;15.90;8.55;;;;;;;;;;5118482;27;20052;-68
2022/12/03 01:28:02;;;;;;;20.58;9.27;;;;;;;;;;5117314;27;20387;-68
2022/12/03 01:32:15;;;;;;;18.02;8.75;;;;;;;;;;5132449;27;20042;-67
2022/12/03 01:33:17;;;;;;;21.48;8.38;;;;;;;;;;5114913;27;20056;-67
2022/12/03 01:35:44;;;;;;;18.63;9.57;;;;;;;;;;5110497;27;20051;-67
2022/12/03 01:38:11;;;;;;;14.70;8.60;;;;;;;;;;5111223;27;20417;-67
2022/12/03 01:40:38;;;;;;;19.60;9.20;;;;;;;;;;5123171;27;20043;-67
2022/12/03 01:43:06;;;;;;;20.52;9.00;;;;;;;;;;5116399;27;20047;-67
2022/12/03 01:45:33;;;;;;;19.67;8.50;;;;;;;;;;5113893;27;20053;-67
2022/12/03 01:48:00;;;;;;;21.25;9.00;;;;;;;;;;5123086;27;20088;-67
2022/12/03 01:50:31;;;;;;;14.98;8.57;;;;;;;;;;5122638;27;20036;-67
2022/12/03 01:53:00;;;;;;;16.25;8.32;;;;;;;;;;5120360;27;20455;-67
2022/12/03 01:55:27;;;;;;;18.30;8.80;;;;;;;;;;5116346;27;20050;-67
2022/12/03 01:57:56;;;;;;;18.73;8.98;;;;;;;;;;5112548;27;20047;-67
2022/12/03 02:00:25;;;;;;;17.92;9.00;;;;;;;;;;5129684;27;20052;-67
2022/12/03 02:02:54;;;;;;;19.02;9.20;;;;;;;;;;5131282;27;20379;-67
2022/12/03 02:05:22;;;;;;;14.35;8.18;;;;;;;;;;5129283;27;20047;-67
2022/12/03 02:07:51;;;;;;;15.85;8.75;;;;;;;;;;5123826;27;20058;-67
2022/12/03 02:10:19;;;;;;;21.90;9.38;;;;;;;;;;5123932;27;20269;-66
2022/12/03 02:12:48;;;;;;;15.32;8.70;;;;;;;;;;5128771;27;20043;-67
2022/12/03 02:15:15;;;;;;;15.55;8.82;;;;;;;;;;5120625;27;20421;-67
2022/12/03 02:17:43;;;;;;;24.80;8.50;;;;;;;;;;5113265;27;20043;-67
2022/12/03 02:20:11;;;;;;;16.08;8.93;;;;;;;;;;5117786;27;20764;-67
2022/12/03 02:22:43;;;;;;;18.95;9.50;;;;;;;;;;5128949;27;20051;-66
2022/12/03 02:25:13;;;;;;;14.23;8.88;;;;;;;;;;5121463;27;20046;-67
2022/12/03 02:27:41;;;;;;;17.17;8.43;;;;;;;;;;5116724;27;20502;-66
2022/12/03 02:30:09;;;;;;;17.25;9.20;;;;;;;;;;5121998;27;20044;-66
2022/12/03 02:32:37;;;;;;;19.40;9.30;;;;;;;;;;5113469;27;20089;-67
2022/12/03 02:35:04;;;;;;;20.45;9.27;;;;;;;;;;5123408;27;20086;-67
2022/12/03 02:37:33;;;;;;;22.13;8.95;;;;;;;;;;5113638;27;20044;-66
2022/12/03 02:40:03;;;;;;;19.65;9.10;;;;;;;;;;5118340;27;20043;-67
2022/12/03 02:42:37;;;;;;;23.30;10.50;;;;;;;;;;5097713;27;20094;-67
2022/12/03 02:45:06;;;;;;;18.25;9.07;;;;;;;;;;5113182;27;20075;-67
2022/12/03 02:47:34;;;;;;;19.45;9.05;;;;;;;;;;5121057;27;20050;-67
2022/12/03 02:50:01;;;;;;;19.40;9.57;;;;;;;;;;5111171;27;20051;-67
2022/12/03 02:52:29;;;;;;;23.45;9.70;;;;;;;;;;5117434;27;20059;-66
2022/12/03 02:54:56;;;;;;;18.38;9.30;;;;;;;;;;5120627;27;20054;-66
2022/12/03 02:57:23;;;;;;;20.05;9.60;;;;;;;;;;5118034;27;20486;-66
2022/12/03 02:59:52;;;;;;;17.58;9.70;;;;;;;;;;5117327;27;20048;-67
2022/12/03 03:02:20;;;;;;;19.15;9.25;;;;;;;;;;5120857;27;20059;-66
2022/12/03 03:04:48;;;;;;;21.52;9.80;;;;;;;;;;5119818;27;20055;-66
2022/12/03 03:07:15;;;;;;;21.23;9.40;;;;;;;;;;5098357;27;20055;-66
2022/12/03 03:09:43;;;;;;;21.48;9.52;;;;;;;;;;5119164;27;20048;-67
2022/12/03 03:12:10;;;;;;;20.40;9.05;;;;;;;;;;5098245;27;20139;-67
2022/12/03 03:14:38;;;;;;;26.33;10.35;;;;;;;;;;5120260;27;20051;-67
2022/12/03 03:17:06;;;;;;;19.65;10.05;;;;;;;;;;5115703;27;20051;-66
2022/12/03 03:19:33;;;;;;;20.77;9.77;;;;;;;;;;5116585;27;20070;-66
2022/12/03 03:22:01;;;;;;;22.98;9.60;;;;;;;;;;5113951;27;20054;-67
2022/12/03 03:24:28;;;;;;;20.80;9.90;;;;;;;;;;5114608;27;20038;-66
2022/12/03 03:26:55;;;;;;;22.42;10.13;;;;;;;;;;5109282;27;20558;-66
2022/12/03 03:29:23;;;;;;;17.35;8.75;;;;;;;;;;5116440;27;20036;-66
2022/12/03 03:31:50;;;;;;;21.02;9.80;;;;;;;;;;5112542;27;20047;-66
2022/12/03 03:34:19;;;;;;;18.73;9.10;;;;;;;;;;5096171;27;20482;-66
2022/12/03 03:36:46;;;;;;;18.00;9.25;;;;;;;;;;5115637;27;20047;-66
2022/12/03 03:39:14;;;;;;;18.63;9.85;;;;;;;;;;5102812;27;20043;-67
2022/12/03 03:41:41;;;;;;;19.98;9.70;;;;;;;;;;5091287;27;20056;-66
2022/12/03 03:44:09;;;;;;;18.90;9.93;;;;;;;;;;5100885;27;20419;-66
2022/12/03 03:46:37;;;;;;;22.42;10.48;;;;;;;;;;5116789;27;20062;-67
2022/12/03 03:49:05;;;;;;;20.15;10.15;;;;;;;;;;5109714;27;20074;-67
2022/12/03 03:51:34;;;;;;;22.95;10.27;;;;;;;;;;5112804;27;20124;-67
2022/12/03 03:54:02;;;;;;;22.80;11.30;;;;;;;;;;5118459;27;20079;-67
2022/12/03 03:56:29;;;;;;;19.10;10.70;;;;;;;;;;5114241;27;20100;-66
2022/12/03 03:58:57;;;;;;;20.30;10.02;;;;;;;;;;5124029;27;20051;-66
2022/12/03 04:01:25;;;;;;;22.38;11.23;;;;;;;;;;5117216;27;20834;-67
2022/12/03 04:03:52;;;;;;;18.63;9.60;;;;;;;;;;5118690;27;20052;-67
2022/12/03 04:06:19;;;;;;;21.55;10.43;;;;;;;;;;5117064;27;20050;-67
2022/12/03 04:08:48;;;;;;;20.35;10.77;;;;;;;;;;5118115;27;20062;-66
2022/12/03 04:14:00;;;;;;;20.58;10.55;;;;;;;;;;5114522;27;20051;-67
2022/12/03 04:16:27;;;;;;;22.17;11.27;;;;;;;;;;5112546;27;21260;-66
2022/12/03 04:18:55;;;;;;;22.13;10.98;;;;;;;;;;5113251;27;20051;-67
2022/12/03 04:24:11;;;;;;;20.15;10.60;;;;;;;;;;5119649;27;20047;-67
2022/12/03 04:29:23;;;;;;;19.88;10.45;;;;;;;;;;5112214;27;20102;-66
2022/12/03 04:37:20;;;;;;;19.60;10.43;;;;;;;;;;5118766;27;20070;-67
2022/12/03 04:39:49;;;;;;;19.83;10.23;;;;;;;;;;5132810;27;20532;-67
2022/12/03 04:42:16;;;;;;;22.67;11.23;;;;;;;;;;5127429;27;20054;-66
2022/12/03 04:44:43;;;;;;;19.90;11.13;;;;;;;;;;5111438;27;20059;-67
2022/12/03 04:47:11;;;;;;;24.75;11.40;;;;;;;;;;5125138;27;20051;-66
2022/12/03 04:49:40;;;;;;;21.17;10.82;;;;;;;;;;5124731;27;20054;-67
2022/12/03 04:52:07;;;;;;;23.90;12.02;;;;;;;;;;5120027;27;20399;-67
2022/12/03 04:54:34;;;;;;;25.13;11.38;;;;;;;;;;5133830;27;20053;-66
2022/12/03 04:57:04;;;;;;;23.40;11.70;;;;;;;;;;5119034;27;20047;-67
2022/12/03 04:59:31;;;;;;;23.50;12.30;;;;;;;;;;5123979;27;20499;-67
2022/12/03 05:01:58;;;;;;;22.83;12.60;;;;;;;;;;5125172;27;20055;-67
2022/12/03 05:04:26;;;;;;;24.75;11.68;;;;;;;;;;5122155;27;20130;-67
2022/12/03 05:06:53;;;;;;;25.98;11.75;;;;;;;;;;5128366;27;20054;-66
2022/12/03 05:09:20;;;;;;;24.50;11.68;;;;;;;;;;5116991;27;20147;-66
2022/12/03 05:11:47;;;;;;;27.17;12.77;;;;;;;;;;5098539;28;20132;-67
2022/12/03 05:14:16;;;;;;;23.05;11.05;;;;;;;;;;5119842;27;20126;-66
2022/12/03 05:16:43;;;;;;;23.63;11.65;;;;;;;;;;5123638;27;20446;-66
2022/12/03 05:19:10;;;;;;;22.27;11.13;;;;;;;;;;5115895;27;20058;-66
2022/12/03 05:21:37;;;;;;;22.27;11.77;;;;;;;;;;5127452;27;20047;-66
2022/12/03 05:24:04;;;;;;;23.30;12.25;;;;;;;;;;5110611;27;20402;-66
2022/12/03 05:26:31;;;;;;;22.60;11.43;;;;;;;;;;5112649;27;20055;-67
2022/12/03 05:28:59;;;;;;;23.00;11.40;;;;;;;;;;5108322;27;20051;-67
2022/12/03 05:31:27;;;;;;;19.98;10.80;;;;;;;;;;5112527;27;20054;-67
2022/12/03 05:33:54;;;;;;;20.92;11.07;;;;;;;;;;5115956;27;20071;-67
2022/12/03 05:36:24;;;;;;;20.23;10.35;;;;;;;;;;5114036;27;20481;-66
2022/12/03 05:38:51;;;;;;;24.20;11.55;;;;;;;;;;5119761;27;20127;-67
2022/12/03 05:44:03;;;;;;;23.05;11.65;;;;;;;;;;5092792;28;20531;-66
2022/12/03 05:46:32;;;;;;;22.25;10.65;;;;;;;;;;5111154;27;20209;-67
2022/12/03 05:48:59;;;;;;;20.70;10.52;;;;;;;;;;5106237;27;20051;-67
2022/12/03 05:51:26;;;;;;;24.45;11.70;;;;;;;;;;5113707;27;20047;-67
2022/12/03 05:53:54;;;;;;;29.17;12.35;;;;;;;;;;5117498;27;20172;-67
2022/12/03 05:56:21;;;;;;;20.95;11.75;;;;;;;;;;5112533;27;20056;-67
2022/12/03 05:58:48;;;;;;;21.10;10.98;;;;;;;;;;5123779;27;20425;-67
2022/12/03 06:01:15;;;;;;;22.08;9.95;;;;;;;;;;5125290;27;20053;-66
2022/12/03 06:03:44;;;;;;;20.40;10.48;;;;;;;;;;5114492;27;20048;-67
2022/12/03 06:06:11;;;;;;;18.90;10.80;;;;;;;;;;5123548;27;20050;-67
2022/12/03 06:08:38;;;;;;;21.20;10.45;;;;;;;;;;5115955;27;20437;-67
2022/12/03 06:11:06;;;;;;;20.55;10.60;;;;;;;;;;5119198;27;20055;-66
2022/12/03 06:13:33;;;;;;;21.98;10.68;;;;;;;;;;5119892;27;20045;-66
2022/12/03 06:16:00;;;;;;;21.95;9.93;;;;;;;;;;5121200;27;20070;-66
2022/12/03 06:18:27;;;;;;;18.05;9.40;;;;;;;;;;5122608;27;20043;-67
2022/12/03 06:20:56;;;;;;;18.95;9.15;;;;;;;;;;5124807;27;20054;-66
2022/12/03 06:23:23;;;;;;;19.52;9.73;;;;;;;;;;5121826;27;20044;-66
2022/12/03 06:25:50;;;;;;;18.25;9.73;;;;;;;;;;5114308;27;20127;-66
2022/12/03 06:28:18;;;;;;;16.08;9.45;;;;;;;;;;5115007;27;20055;-66
2022/12/03 06:30:45;;;;;;;19.25;9.63;;;;;;;;;;5127461;27;20044;-66
2022/12/03 06:33:12;;;;;;;21.35;10.48;;;;;;;;;;5126959;27;20973;-66
2022/12/03 06:35:39;;;;;;;19.55;9.55;;;;;;;;;;5122549;27;20043;-66
2022/12/03 06:38:08;;;;;;;21.63;10.15;;;;;;;;;;5118025;27;20077;-66
2022/12/03 06:40:37;;;;;;;22.10;10.05;;;;;;;;;;5119954;27;20561;-66
2022/12/03 06:43:04;;;;;;;19.52;10.52;;;;;;;;;;5125453;27;20070;-67
2022/12/03 06:45:31;;;;;;;21.33;9.93;;;;;;;;;;5119755;27;20714;-67
2022/12/03 06:47:58;;;;;;;19.88;9.55;;;;;;;;;;5120790;27;20088;-66
2022/12/03 06:50:25;;;;;;;20.25;9.65;;;;;;;;;;5119500;27;20423;-66
2022/12/03 06:52:53;;;;;;;20.98;9.70;;;;;;;;;;5099681;27;20071;-66
2022/12/03 06:55:21;;;;;;;19.60;9.32;;;;;;;;;;5121018;27;20057;-66
2022/12/03 06:57:48;;;;;;;18.23;9.23;;;;;;;;;;5119530;27;20062;-67
2022/12/03 07:00:16;;;;;;;21.00;9.40;;;;;;;;;;5117111;27;20908;-66
2022/12/03 07:02:43;;;;;;;18.98;9.73;;;;;;;;;;5118208;27;20047;-66
2022/12/03 07:05:11;;;;;;;18.30;9.10;;;;;;;;;;5122831;27;20134;-67
2022/12/03 07:07:38;;;;;;;21.00;10.25;;;;;;;;;;5118704;27;20058;-67
2022/12/03 07:10:06;;;;;;;18.15;9.13;;;;;;;;;;5121177;27;20047;-66
2022/12/03 07:12:34;;;;;;;19.40;9.45;;;;;;;;;;5117225;27;20125;-67
2022/12/03 07:15:02;;;;;;;17.98;9.07;;;;;;;;;;5120478;27;20043;-66
2022/12/03 07:17:29;;;;;;;23.00;9.35;;;;;;;;;;5114634;27;20664;-67
2022/12/03 07:19:56;;;;;;;19.10;8.88;;;;;;;;;;5117266;27;20058;-66
2022/12/03 07:22:24;;;;;;;18.83;9.05;;;;;;;;;;5110368;27;20478;-66
2022/12/03 07:24:51;;;;;;;16.60;8.43;;;;;;;;;;5120260;27;20297;-66
2022/12/03 07:27:18;;;;;;;19.20;8.88;;;;;;;;;;5092092;27;20055;-66
2022/12/03 07:29:47;;;;;;;18.10;9.23;;;;;;;;;;5121358;27;20035;-66
2022/12/03 07:32:14;;;;;;;21.70;8.90;;;;;;;;;;5115608;27;20036;-67
2022/12/03 07:34:41;;;;;;;16.80;9.05;;;;;;;;;;5102343;27;20142;-66
2022/12/03 07:37:08;;;;;;;20.67;9.52;;;;;;;;;;5112480;27;20047;-67
2022/12/03 07:39:36;;;;;;;16.55;8.98;;;;;;;;;;5126775;27;20051;-67
2022/12/03 07:42:03;;;;;;;19.58;8.43;;;;;;;;;;5117396;27;20070;-66
2022/12/03 07:44:31;;;;;;;19.70;9.20;;;;;;;;;;5117225;27;20525;-66
2022/12/03 07:46:59;;;;;;;16.58;8.73;;;;;;;;;;5117359;27;20055;-66
2022/12/03 07:49:27;;;;;;;17.85;9.57;;;;;;;;;;5117660;27;20096;-67
2022/12/03 07:51:55;;;;;;;23.10;10.30;;;;;;;;;;5123176;27;20416;-66
2022/12/03 07:54:23;;;;;;;23.45;9.68;;;;;;;;;;5115806;27;20493;-68
2022/12/03 07:56:50;;;;;;;19.25;9.13;;;;;;;;;;5118033;27;20070;-67
2022/12/03 07:59:18;;;;;;;21.70;9.95;;;;;;;;;;5097223;27;20070;-69
2022/12/03 08:01:45;;;;;;;21.00;9.27;;;;;;;;;;5115153;27;20058;-68
2022/12/03 08:04:17;;;;;;;17.88;8.77;;;;;;;;;;5119981;27;20058;-67
2022/12/03 08:06:44;;;;;;;19.83;9.70;;;;;;;;;;5117237;27;20506;-66
2022/12/03 08:09:11;;;;;;;18.35;8.90;;;;;;;;;;5116497;27;20047;-67
2022/12/03 08:11:38;;;;;;;19.83;10.07;;;;;;;;;;5119597;27;20497;-66
2022/12/03 08:14:08;;;;;;;19.10;9.40;;;;;;;;;;5095271;27;20051;-66
2022/12/03 08:16:37;;;;;;;19.30;8.52;;;;;;;;;;5117900;27;20050;-67
2022/12/03 08:19:06;;;;;;;17.70;8.85;;;;;;;;;;5120494;27;20454;-67
2022/12/03 08:21:36;;;;;;;18.77;9.07;;;;;;;;;;5115825;27;20058;-67
2022/12/03 08:24:12;;;;;;;20.02;9.02;;;;;;;;;;5114785;27;20047;-67
2022/12/03 08:26:39;;;;;;;18.05;8.82;;;;;;;;;;5119951;27;20051;-68
2022/12/03 08:29:09;;;;;;;16.67;8.15;;;;;;;;;;5114165;27;20047;-66
2022/12/03 08:31:36;;;;;;;18.13;8.93;;;;;;;;;;5120164;27;20047;-67
2022/12/03 08:34:22;;;;;;;17.30;8.40;;;;;;;;;;5077878;27;20055;-68
2022/12/03 08:36:51;;;;;;;19.85;8.48;;;;;;;;;;5117794;27;20381;-67
2022/12/03 08:39:29;;;;;;;18.80;8.32;;;;;;;;;;5120549;27;20047;-67
2022/12/03 08:44:41;;;;;;;18.23;8.75;;;;;;;;;;5103116;27;20576;-67
2022/12/03 08:47:12;;;;;;;22.15;9.70;;;;;;;;;;5120939;27;20051;-67
2022/12/03 08:49:39;;;;;;;18.63;8.55;;;;;;;;;;5121775;27;20151;-66
2022/12/03 08:52:12;;;;;;;19.13;8.57;;;;;;;;;;5117508;27;20043;-66
2022/12/03 08:54:40;;;;;;;17.13;8.30;;;;;;;;;;5111951;27;20047;-66
2022/12/03 08:57:20;;;;;;;20.77;10.00;;;;;;;;;;5119915;27;20078;-66
2022/12/03 08:59:51;;;;;;;21.83;10.07;;;;;;;;;;5096338;28;20175;-66
2022/12/03 09:02:27;;;;;;;23.25;15.05;;;;;;;;;;5118902;27;20043;-66
2022/12/03 09:04:54;;;;;;;16.88;8.95;;;;;;;;;;5115885;27;20533;-68
2022/12/03 09:07:23;;;;;;;16.88;8.75;;;;;;;;;;5122793;27;20081;-67
2022/12/03 09:09:50;;;;;;;20.58;9.65;;;;;;;;;;5116231;27;20130;-66
2022/12/03 09:12:17;;;;;;;20.63;9.52;;;;;;;;;;5111016;27;20083;-66
2022/12/03 09:14:44;;;;;;;18.63;9.45;;;;;;;;;;5117026;27;20051;-68
2022/12/03 09:17:12;;;;;;;18.95;9.10;;;;;;;;;;5118255;27;20050;-66
2022/12/03 09:19:43;;;;;;;18.17;9.32;;;;;;;;;;5110462;27;20055;-66
2022/12/03 09:22:11;;;;;;;20.00;9.32;;;;;;;;;;5116164;27;20070;-69
2022/12/03 09:24:40;;;;;;;17.65;9.32;;;;;;;;;;5124874;27;20047;-66
2022/12/03 09:27:07;;;;;;;22.05;10.07;;;;;;;;;;5115127;27;20082;-66
2022/12/03 09:29:34;;;;;;;18.92;9.00;;;;;;;;;;5122731;27;20051;-67
2022/12/03 09:32:01;;;;;;;18.75;9.45;;;;;;;;;;5122506;27;20046;-67
2022/12/03 09:34:29;;;;;;;21.48;9.85;;;;;;;;;;5121983;27;20482;-67
2022/12/03 09:36:56;;;;;;;20.95;10.40;;;;;;;;;;5123357;27;20039;-66
2022/12/03 09:39:23;;;;;;;20.25;9.52;;;;;;;;;;5121565;27;20054;-66
2022/12/03 09:41:52;;;;;;;20.30;9.73;;;;;;;;;;5125336;27;20051;-66
2022/12/03 09:44:19;;;;;;;20.90;10.15;;;;;;;;;;5131445;27;20072;-67
2022/12/03 09:46:47;;;;;;;23.10;10.40;;;;;;;;;;5119525;27;20051;-66
2022/12/03 09:49:16;;;;;;;24.75;11.95;;;;;;;;;;5125306;27;20061;-67
2022/12/03 09:51:44;;;;;;;22.67;11.43;;;;;;;;;;5123732;27;20505;-66
2022/12/03 09:54:15;;;;;;;22.35;10.27;;;;;;;;;;5132784;27;20039;-67
2022/12/03 09:56:42;;;;;;;21.90;10.43;;;;;;;;;;5124151;27;20058;-66
2022/12/03 09:59:15;;;;;;;20.88;10.93;;;;;;;;;;5135548;27;20046;-66
2022/12/03 10:01:42;;;;;;;23.10;11.20;;;;;;;;;;5129598;27;20055;-67
2022/12/03 10:04:09;;;;;;;24.95;11.85;;;;;;;;;;5124273;27;20047;-66
2022/12/03 10:06:37;;;;;;;21.67;10.65;;;;;;;;;;5123313;27;20589;-66
2022/12/03 10:09:05;;;;;;;24.38;11.63;;;;;;;;;;5131510;27;20806;-66
2022/12/03 10:11:32;;;;;;;21.67;10.82;;;;;;;;;;5123916;27;20051;-66
2022/12/03 10:14:00;;;;;;;24.20;11.30;;;;;;;;;;5125772;27;20042;-66
2022/12/03 10:16:29;;;;;;;24.48;11.25;;;;;;;;;;5121592;27;20055;-66
2022/12/03 10:18:59;;;;;;;23.30;11.43;;;;;;;;;;5109198;27;20047;-66
2022/12/03 10:21:29;;;;;;;25.23;12.10;;;;;;;;;;5122922;27;20052;-66
2022/12/03 10:24:15;;;;;;;21.33;11.07;;;;;;;;;;5113651;27;20054;-66
2022/12/03 10:26:42;;;;;;;21.25;10.98;;;;;;;;;;5115880;27;20059;-66
2022/12/03 10:29:12;;;;;;;24.52;10.77;;;;;;;;;;5119103;27;20047;-67
2022/12/03 10:31:41;;;;;;;22.05;10.85;;;;;;;;;;5122528;27;20146;-66
2022/12/03 10:34:10;;;;;;;22.30;12.10;;;;;;;;;;5116931;27;20051;-66
2022/12/03 10:36:38;;;;;;;25.98;12.15;;;;;;;;;;5097052;27;20047;-67
2022/12/03 10:39:10;;;;;;;25.20;11.93;;;;;;;;;;5122020;27;20043;-66
2022/12/03 10:41:37;;;;;;;22.23;11.45;;;;;;;;;;5122983;27;20055;-66
2022/12/03 10:44:18;;;;;;;23.55;11.43;;;;;;;;;;5125210;27;20043;-67
2022/12/03 10:46:47;;;;;;;26.55;11.65;;;;;;;;;;5117383;27;20047;-67
2022/12/03 10:49:16;;;;;;;22.35;10.95;;;;;;;;;;5118821;27;20108;-67
2022/12/03 10:51:44;;;;;;;25.33;11.85;;;;;;;;;;5097569;27;20116;-65
2022/12/03 10:54:15;;;;;;;23.55;11.80;;;;;;;;;;5117543;27;20097;-67
2022/12/03 10:56:42;;;;;;;26.55;12.38;;;;;;;;;;5115239;27;20534;-67
2022/12/03 10:59:13;;;;;;;25.60;11.57;;;;;;;;;;5124368;27;20051;-67
2022/12/03 11:01:41;;;;;;;23.83;11.68;;;;;;;;;;5117967;27;20130;-66
2022/12/03 11:04:15;;;;;;;25.65;12.23;;;;;;;;;;5127743;27;20410;-66
2022/12/03 11:06:43;;;;;;;25.83;14.05;;;;;;;;;;5124851;27;20055;-66
2022/12/03 11:09:14;;;;;;;22.38;11.45;;;;;;;;;;5123713;27;20047;-67
2022/12/03 11:11:41;;;;;;;27.13;11.75;;;;;;;;;;5116076;27;20494;-67
2022/12/03 11:14:10;;;;;;;23.90;12.00;;;;;;;;;;5120319;27;20485;-66
2022/12/03 11:17:11;;;;;;;25.33;12.45;;;;;;;;;;5119909;27;20096;-66
2022/12/03 11:19:50;;;;;;;31.70;11.88;;;;;;;;;;5121860;27;20502;-67
2022/12/03 11:22:40;;;;;;;23.80;11.40;;;;;;;;;;5108500;27;20058;-67
2022/12/03 11:25:26;;;;;;;25.60;11.60;;;;;;;;;;5130252;27;20035;-66
2022/12/03 11:28:08;;;;;;;22.63;11.85;;;;;;;;;;5123555;27;20766;-67
2022/12/03 11:30:57;;;;;;;23.73;11.90;;;;;;;;;;5121611;27;21305;-67
2022/12/03 11:33:24;;;;;;;23.90;11.52;;;;;;;;;;5102194;27;20203;-67
2022/12/03 11:36:07;;;;;;;26.38;12.07;;;;;;;;;;5121620;27;20787;-69
2022/12/03 11:38:44;;;;;;;24.25;12.07;;;;;;;;;;5118344;27;20050;-68
2022/12/03 11:41:12;;;;;;;25.05;11.57;;;;;;;;;;5114177;27;20580;-69
2022/12/03 11:43:59;;;;;;;25.08;12.27;;;;;;;;;;5117503;27;20051;-68
2022/12/03 11:46:27;;;;;;;22.83;11.30;;;;;;;;;;5119033;27;20043;-69
2022/12/03 11:48:56;;;;;;;23.05;11.18;;;;;;;;;;5110662;27;20051;-68
2022/12/03 11:51:25;;;;;;;24.05;11.98;;;;;;;;;;5114807;27;20055;-68
2022/12/03 11:53:55;;;;;;;24.17;11.45;;;;;;;;;;5117082;27;20768;-68
2022/12/03 11:56:24;;;;;;;22.65;11.25;;;;;;;;;;5118710;27;20056;-68
2022/12/03 11:58:58;;;;;;;21.92;12.05;;;;;;;;;;5117814;27;20047;-69
2022/12/03 12:01:32;;;;;;;25.25;12.57;;;;;;;;;;5111831;27;20051;-69
2022/12/03 12:04:00;;;;;;;22.73;11.40;;;;;;;;;;5114082;27;20135;-69
2022/12/03 12:06:27;;;;;;;26.48;11.82;;;;;;;;;;5123255;27;20058;-68
2022/12/03 12:09:02;;;;;;;24.75;11.57;;;;;;;;;;5114983;27;20042;-68
2022/12/03 12:11:30;;;;;;;22.30;11.20;;;;;;;;;;5115793;27;20751;-69
2022/12/03 12:13:58;;;;;;;28.70;11.80;;;;;;;;;;5120735;27;20481;-68
2022/12/03 12:16:38;;;;;;;23.00;11.18;;;;;;;;;;5113108;27;20501;-68
2022/12/03 12:19:24;;;;;;;21.92;11.35;;;;;;;;;;5108912;27;20051;-68
2022/12/03 12:21:52;;;;;;;22.40;11.25;;;;;;;;;;5118029;27;20048;-69
2022/12/03 12:24:30;;;;;;;25.67;12.48;;;;;;;;;;5123827;27;20051;-68
2022/12/03 12:26:58;;;;;;;25.75;12.65;;;;;;;;;;5121513;27;20691;-69
2022/12/03 12:29:25;;;;;;;24.50;11.68;;;;;;;;;;5120391;27;20069;-68
2022/12/03 12:31:58;;;;;;;23.40;11.52;;;;;;;;;;5118663;27;20052;-68
2022/12/03 12:34:25;;;;;;;26.75;12.20;;;;;;;;;;5117663;27;20055;-69
2022/12/03 12:36:55;;;;;;;22.25;11.45;;;;;;;;;;5109978;27;20488;-68
2022/12/03 12:39:22;;;;;;;23.17;11.90;;;;;;;;;;5098247;28;20057;-68
2022/12/03 12:41:51;;;;;;;26.75;12.38;;;;;;;;;;5090611;27;20055;-68
2022/12/03 12:44:22;;;;;;;26.30;12.90;;;;;;;;;;5120013;27;20750;-68
2022/12/03 12:46:50;;;;;;;27.13;12.15;;;;;;;;;;5114690;27;20047;-68
2022/12/03 12:49:20;;;;;;;22.98;11.57;;;;;;;;;;5126252;27;20043;-69
2022/12/03 12:51:48;;;;;;;26.00;12.73;;;;;;;;;;5104783;28;20051;-68
2022/12/03 12:54:17;;;;;;;25.73;12.68;;;;;;;;;;5114552;27;20112;-68
2022/12/03 12:56:45;;;;;;;23.63;12.15;;;;;;;;;;5113666;27;20378;-69
2022/12/03 12:59:16;;;;;;;25.48;12.40;;;;;;;;;;5124158;27;20130;-68
2022/12/03 13:01:44;;;;;;;26.67;12.52;;;;;;;;;;5129648;27;20535;-68
2022/12/03 13:04:12;;;;;;;23.80;11.63;;;;;;;;;;5118253;27;20047;-69
2022/12/03 13:06:39;;;;;;;24.75;12.57;;;;;;;;;;5120164;27;20601;-69
2022/12/03 13:09:09;;;;;;;27.17;12.52;;;;;;;;;;5121284;27;20393;-69
2022/12/03 13:11:40;;;;;;;29.42;12.63;;;;;;;;;;5113238;27;20059;-69
2022/12/03 13:14:11;;;;;;;26.98;13.20;;;;;;;;;;5118639;27;20132;-69
2022/12/03 13:16:39;;;;;;;25.70;12.55;;;;;;;;;;5120456;27;20048;-69
2022/12/03 13:19:13;;;;;;;26.10;12.50;;;;;;;;;;5124010;27;20412;-69
2022/12/03 13:21:43;;;;;;;28.65;12.45;;;;;;;;;;5119032;27;20140;-69
2022/12/03 13:24:26;;;;;;;30.25;13.55;;;;;;;;;;5122562;27;20066;-69
2022/12/03 13:26:54;;;;;;;24.20;12.45;;;;;;;;;;5122372;27;20053;-69
2022/12/03 13:29:22;;;;;;;28.83;13.30;;;;;;;;;;5128730;27;20548;-68
2022/12/03 13:31:52;;;;;;;24.50;12.38;;;;;;;;;;5123472;27;20087;-69
2022/12/03 13:34:21;;;;;;;24.10;12.80;;;;;;;;;;5127591;27;20048;-69
2022/12/03 13:36:48;;;;;;;28.85;13.68;;;;;;;;;;5129057;27;20448;-68
2022/12/03 13:39:17;;;;;;;30.85;13.88;;;;;;;;;;5127807;27;20082;-68
2022/12/03 13:44:30;;;;;;;25.80;13.35;;;;;;;;;;5125201;27;20508;-68
2022/12/03 13:47:01;;;;;;;27.45;13.38;;;;;;;;;;5121565;27;20054;-68
2022/12/03 13:49:29;;;;;;;27.65;14.25;;;;;;;;;;5121649;27;20057;-69
2022/12/03 13:51:56;;;;;;;27.08;13.93;;;;;;;;;;5119001;27;20058;-69
2022/12/03 13:54:26;;;;;;;27.35;13.82;;;;;;;;;;5120773;27;20051;-68
2022/12/03 13:56:54;;;;;;;28.30;13.60;;;;;;;;;;5121972;27;20054;-69
2022/12/03 13:59:21;;;;;;;27.77;14.25;;;;;;;;;;5114629;27;20051;-68
2022/12/03 14:01:48;;;;;;;27.50;13.60;;;;;;;;;;5124692;27;20481;-69
2022/12/03 14:04:17;;;;;;;26.38;13.65;;;;;;;;;;5133448;27;20053;-69
2022/12/03 14:06:44;;;;;;;27.27;13.88;;;;;;;;;;5106499;27;20051;-68
2022/12/03 14:09:11;;;;;;;25.85;12.90;;;;;;;;;;5115585;27;20441;-68
2022/12/03 14:14:24;;;;;;;26.60;13.55;;;;;;;;;;5116647;27;20503;-69
2022/12/03 14:16:51;;;;;;;27.20;13.65;;;;;;;;;;5120518;27;20043;-68
2022/12/03 14:19:20;;;;;;;27.33;13.90;;;;;;;;;;5097487;27;20074;-69
2022/12/03 14:21:47;;;;;;;29.60;14.32;;;;;;;;;;5118383;27;20486;-69
2022/12/03 14:24:14;;;;;;;37.22;14.32;;;;;;;;;;5114534;27;20043;-69
2022/12/03 14:26:41;;;;;;;34.10;15.10;;;;;;;;;;5113278;27;20067;-68
2022/12/03 14:29:09;;;;;;;28.08;13.75;;;;;;;;;;5117679;27;20091;-69
2022/12/03 14:31:36;;;;;;;29.60;14.10;;;;;;;;;;5116344;27;20599;-69
2022/12/03 14:34:03;;;;;;;27.25;13.85;;;;;;;;;;5124448;27;20047;-69
2022/12/03 14:36:32;;;;;;;29.30;13.65;;;;;;;;;;5112604;27;20052;-69
2022/12/03 14:38:59;;;;;;;28.20;13.60;;;;;;;;;;5109361;27;20047;-69
2022/12/03 14:44:11;;;;;;;28.83;13.45;;;;;;;;;;5100670;27;20510;-69
2022/12/03 14:46:38;;;;;;;37.65;16.02;;;;;;;;;;5116191;27;20052;-69
2022/12/03 14:49:06;;;;;;;30.10;14.30;;;;;;;;;;5113672;27;20105;-69
2022/12/03 14:51:34;;;;;;;28.00;13.00;;;;;;;;;;5123495;27;20057;-69
2022/12/03 14:54:01;;;;;;;27.25;13.55;;;;;;;;;;5120263;27;20051;-69
2022/12/03 14:56:29;;;;;;;28.85;13.43;;;;;;;;;;5109383;27;20067;-69
2022/12/03 14:58:56;;;;;;;27.73;13.68;;;;;;;;;;5117983;27;20505;-69